Time;durP1;ratioP1;P1;durP2;ratioP2;P2;SDS_P1;SDS_P2;PMS_P1;PMS_P2;Temp;Humidity;BMP_temperature;BMP_pressure;BME280_temperature;BME280_humidity;BME280_pressure;Samples;Min_cycle;Max_cycle;Signal;HPM_P1;HPM_P2
2021/12/21 00:00:36;;;;;;;7.07;3.60;;;4.30;62.40;;;;;;4991575;28;20034;-64
2021/12/21 00:03:02;;;;;;;4.70;3.28;;;4.20;62.40;;;;;;4991059;28;20043;-63
2021/12/21 00:05:29;;;;;;;8.02;4.13;;;4.20;62.30;;;;;;4991169;28;20380;-62
2021/12/21 00:07:58;;;;;;;5.38;3.58;;;4.20;62.30;;;;;;4990670;28;20089;-64
2021/12/21 00:10:26;;;;;;;7.03;3.50;;;4.30;62.20;;;;;;4991260;28;20503;-61
2021/12/21 00:13:06;;;;;;;8.30;3.83;;;4.30;62.00;;;;;;4991425;28;20065;-64
2021/12/21 00:21:30;;;;;;;8.88;3.88;;;4.20;62.20;;;;;;4952224;29;20125;-58
2021/12/21 00:24:11;;;;;;;7.72;3.90;;;4.20;62.20;;;;;;4972713;28;20045;-64
2021/12/21 00:26:37;;;;;;;6.93;3.60;;;4.20;62.20;;;;;;4993582;28;20384;-63
2021/12/21 00:29:03;;;;;;;7.40;4.05;;;4.10;62.10;;;;;;5010217;28;20026;-61
2021/12/21 00:31:32;;;;;;;13.93;3.90;;;4.10;62.30;;;;;;5010009;28;20069;-62
2021/12/21 00:33:59;;;;;;;6.78;3.50;;;4.10;62.40;;;;;;5010196;28;20028;-63
2021/12/21 00:36:27;;;;;;;10.02;3.60;;;4.00;62.40;;;;;;5010660;28;20056;-62
2021/12/21 00:38:55;;;;;;;7.95;3.75;;;3.90;62.90;;;;;;5010519;28;20029;-64
2021/12/21 00:41:21;;;;;;;7.93;3.55;;;3.90;62.80;;;;;;5009944;28;20025;-65
2021/12/21 00:43:48;;;;;;;7.53;4.10;;;4.00;62.70;;;;;;5010394;28;20056;-62
2021/12/21 00:46:16;;;;;;;7.50;3.90;;;4.00;62.40;;;;;;5009869;28;20033;-63
2021/12/21 00:48:52;;;;;;;6.18;3.95;;;4.00;62.30;;;;;;5010158;28;20618;-58
2021/12/21 00:51:21;;;;;;;7.88;3.75;;;3.90;62.40;;;;;;5009897;28;20230;-62
2021/12/21 01:00:33;;;;;;;9.38;4.22;;;4.10;61.90;;;;;;5050197;28;20024;-62
2021/12/21 01:03:05;;;;;;;9.48;4.38;;;4.00;62.10;;;;;;5033307;28;20037;-66
2021/12/21 01:05:40;;;;;;;10.10;3.60;;;4.00;62.20;;;;;;5033202;28;20108;-63
2021/12/21 01:08:08;;;;;;;8.95;3.85;;;4.00;62.40;;;;;;5049303;28;20033;-62
2021/12/21 01:13:14;;;;;;;10.25;4.85;;;4.00;62.40;;;;;;5033153;28;20464;-63
2021/12/21 01:18:18;;;;;;;7.40;3.92;;;4.00;62.80;;;;;;5049101;28;20504;-62
2021/12/21 01:21:04;;;;;;;7.47;4.38;;;4.00;62.90;;;;;;5050059;28;20045;-63
2021/12/21 01:29:14;;;;;;;7.65;4.20;;;4.00;62.60;;;;;;5049893;28;20128;-58
2021/12/21 01:31:57;;;;;;;6.43;3.63;;;4.00;62.60;;;;;;5049348;28;20111;-61
2021/12/21 01:36:59;;;;;;;10.18;4.18;;;3.90;62.90;;;;;;5071538;28;20465;-63
2021/12/21 01:49:51;;;;;;;8.13;4.30;;;3.90;62.90;;;;;;5075200;28;20035;-61
2021/12/21 01:52:21;;;;;;;10.13;4.10;;;3.90;63.00;;;;;;5074764;28;20028;-61
2021/12/21 01:54:47;;;;;;;5.85;4.03;;;3.90;62.90;;;;;;5074826;28;20025;-60
2021/12/21 01:57:13;;;;;;;7.43;4.80;;;3.90;62.90;;;;;;5074413;28;20035;-62
2021/12/21 01:59:41;;;;;;;9.23;4.15;;;3.80;62.80;;;;;;5074903;28;20052;-59
2021/12/21 02:02:08;;;;;;;7.55;4.15;;;3.80;62.70;;;;;;5073292;28;20078;-62
2021/12/21 02:04:35;;;;;;;9.07;4.18;;;3.80;62.60;;;;;;5074931;28;20037;-63
2021/12/21 02:07:14;;;;;;;9.82;4.05;;;3.80;62.60;;;;;;5075512;28;20392;-62
2021/12/21 02:09:40;;;;;;;8.90;4.03;;;3.70;62.70;;;;;;5073961;28;20124;-61
2021/12/21 02:12:14;;;;;;;10.38;4.60;;;3.80;62.70;;;;;;5074100;28;20052;-61
2021/12/21 02:14:41;;;;;;;5.55;3.65;;;3.70;62.70;;;;;;5072742;28;20513;-61
2021/12/21 02:19:54;;;;;;;8.57;4.85;;;3.80;63.20;;;;;;5074999;28;20025;-56
2021/12/21 02:22:22;;;;;;;7.80;3.83;;;3.70;62.50;;;;;;5073107;28;20032;-64
2021/12/21 02:25:03;;;;;;;7.57;3.67;;;3.70;62.50;;;;;;5074507;28;20028;-61
2021/12/21 02:27:41;;;;;;;5.35;3.72;;;3.70;62.40;;;;;;5060726;28;20379;-59
2021/12/21 02:30:08;;;;;;;8.43;4.10;;;3.70;62.30;;;;;;5038121;28;20371;-59
2021/12/21 02:32:33;;;;;;;9.73;3.50;;;3.70;62.30;;;;;;5036580;28;20029;-60
2021/12/21 02:34:59;;;;;;;7.05;3.50;;;3.60;62.20;;;;;;5054385;28;20032;-61
2021/12/21 02:37:31;;;;;;;10.90;4.15;;;3.60;62.20;;;;;;5054027;28;20608;-62
2021/12/21 02:40:02;;;;;;;7.32;3.60;;;3.60;62.00;;;;;;5037114;28;20045;-63
2021/12/21 02:42:28;;;;;;;9.13;3.88;;;3.60;62.00;;;;;;5035485;28;20112;-62
2021/12/21 02:44:56;;;;;;;8.27;3.80;;;3.70;62.50;;;;;;5054172;28;20108;-62
2021/12/21 02:47:21;;;;;;;6.22;3.55;;;3.70;61.80;;;;;;5053387;28;20029;-65
2021/12/21 02:49:47;;;;;;;5.10;3.63;;;3.60;61.40;;;;;;5054239;28;20374;-64
2021/12/21 02:52:13;;;;;;;6.55;3.28;;;3.60;61.60;;;;;;5053442;28;20108;-63
2021/12/21 02:54:38;;;;;;;5.28;3.22;;;3.60;61.50;;;;;;5053713;28;20079;-62
2021/12/21 02:57:05;;;;;;;6.78;3.35;;;3.60;61.40;;;;;;5036270;28;20021;-61
2021/12/21 02:59:30;;;;;;;8.02;3.35;;;3.60;61.40;;;;;;5053274;28;20052;-61
2021/12/21 03:01:56;;;;;;;6.53;3.08;;;3.60;61.10;;;;;;5035975;28;20025;-60
2021/12/21 03:04:22;;;;;;;8.13;3.58;;;3.60;61.10;;;;;;5052926;28;20112;-62
2021/12/21 03:09:41;;;;;;;6.85;3.28;;;3.60;60.80;;;;;;5029958;28;20037;-62
2021/12/21 03:14:45;;;;;;;6.00;3.15;;;3.60;60.50;;;;;;5052639;28;20033;-63
2021/12/21 03:17:10;;;;;;;5.32;2.70;;;3.60;60.00;;;;;;5035223;28;20029;-65
2021/12/21 03:26:06;;;;;;;6.00;3.13;;;3.60;60.10;;;;;;4975894;28;20594;-63
2021/12/21 03:28:32;;;;;;;6.38;2.80;;;3.60;59.80;;;;;;5072135;28;20115;-61
2021/12/21 03:30:57;;;;;;;8.10;3.40;;;3.50;59.90;;;;;;5072596;28;20050;-62
2021/12/21 03:33:23;;;;;;;6.22;3.10;;;3.50;59.90;;;;;;5071878;28;20024;-61
2021/12/21 03:35:49;;;;;;;6.35;3.40;;;3.50;59.70;;;;;;5072419;28;20025;-62
2021/12/21 03:38:16;;;;;;;5.28;2.75;;;3.60;59.80;;;;;;5071524;28;20024;-62
2021/12/21 03:40:43;;;;;;;6.13;3.00;;;3.60;59.70;;;;;;5071185;28;20037;-62
2021/12/21 03:43:10;;;;;;;5.30;3.05;;;3.60;59.60;;;;;;5070671;28;20037;-63
2021/12/21 03:45:46;;;;;;;5.78;2.88;;;3.60;59.60;;;;;;5071239;28;20043;-58
2021/12/21 03:48:14;;;;;;;6.63;2.72;;;3.60;59.50;;;;;;5070721;28;20316;-63
2021/12/21 03:50:40;;;;;;;11.70;3.42;;;3.60;59.40;;;;;;5071178;28;20032;-64
2021/12/21 03:53:06;;;;;;;7.43;3.17;;;3.50;59.30;;;;;;5071621;28;20086;-62
2021/12/21 03:55:32;;;;;;;6.50;3.03;;;3.60;59.40;;;;;;5071117;28;20074;-65
2021/12/21 03:57:57;;;;;;;6.47;2.80;;;3.60;59.20;;;;;;5071811;28;20025;-63
2021/12/21 04:03:07;;;;;;;5.93;2.63;;;3.60;59.10;;;;;;5071419;28;20078;-63
2021/12/21 04:05:33;;;;;;;5.03;2.67;;;3.60;58.80;;;;;;5070208;28;20033;-58
2021/12/21 04:08:03;;;;;;;6.60;2.53;;;3.60;58.90;;;;;;5071912;28;20024;-63
2021/12/21 04:10:32;;;;;;;6.78;2.80;;;3.60;58.60;;;;;;5072244;28;20024;-64
2021/12/21 04:13:09;;;;;;;4.70;2.83;;;3.50;58.90;;;;;;5071587;28;20050;-61
2021/12/21 04:15:42;;;;;;;5.30;2.95;;;3.50;58.90;;;;;;5072869;28;20212;-62
2021/12/21 04:18:28;;;;;;;4.75;2.75;;;3.50;58.40;;;;;;5070324;28;20028;-63
2021/12/21 04:20:54;;;;;;;5.07;2.78;;;3.50;58.70;;;;;;5071406;28;20567;-66
2021/12/21 04:23:39;;;;;;;5.78;2.72;;;3.50;58.70;;;;;;5071942;28;20037;-63
2021/12/21 04:26:11;;;;;;;5.25;2.88;;;3.50;58.70;;;;;;5069461;28;20052;-62
2021/12/21 04:28:37;;;;;;;8.35;3.10;;;3.50;58.80;;;;;;5051854;28;20049;-63
2021/12/21 04:31:04;;;;;;;8.13;3.17;;;3.50;58.70;;;;;;5051654;28;20029;-64
2021/12/21 04:33:31;;;;;;;4.50;2.70;;;3.50;58.70;;;;;;5051969;28;20127;-64
2021/12/21 04:35:57;;;;;;;8.15;3.30;;;3.50;58.70;;;;;;5051805;28;20032;-64
2021/12/21 04:38:27;;;;;;;5.70;2.88;;;3.50;58.60;;;;;;5051519;28;20433;-63
2021/12/21 04:41:01;;;;;;;5.60;2.65;;;3.50;58.40;;;;;;5051403;28;20040;-64
2021/12/21 04:43:27;;;;;;;9.70;3.28;;;3.50;58.20;;;;;;5052006;28;20078;-66
2021/12/21 04:45:53;;;;;;;5.57;2.90;;;3.50;58.20;;;;;;5033528;28;20033;-67
2021/12/21 04:48:19;;;;;;;5.03;3.15;;;3.50;58.00;;;;;;5051553;28;20025;-64
2021/12/21 04:53:29;;;;;;;9.45;4.20;;;3.50;58.10;;;;;;5051886;28;20281;-64
2021/12/21 04:55:55;;;;;;;10.73;5.00;;;3.50;58.10;;;;;;5050926;28;20021;-63
2021/12/21 04:58:21;;;;;;;10.20;5.00;;;3.40;58.10;;;;;;5051420;28;20029;-62
2021/12/21 05:00:48;;;;;;;10.88;5.22;;;3.40;58.20;;;;;;5051977;28;20038;-62
2021/12/21 05:03:14;;;;;;;9.73;4.47;;;3.40;58.30;;;;;;5051091;28;20189;-62
2021/12/21 05:05:40;;;;;;;19.23;7.43;;;3.40;58.30;;;;;;5033763;28;20040;-59
2021/12/21 05:08:09;;;;;;;16.52;6.93;;;3.40;58.30;;;;;;5051117;28;20167;-59
2021/12/21 05:10:55;;;;;;;15.02;6.88;;;3.40;58.30;;;;;;5033897;28;20028;-62
2021/12/21 05:13:46;;;;;;;12.77;6.32;;;3.40;58.40;;;;;;5052383;28;20110;-63
2021/12/21 05:16:12;;;;;;;8.85;4.95;;;3.40;58.30;;;;;;4999631;28;20110;-63
2021/12/21 05:18:38;;;;;;;12.35;4.03;;;3.40;59.00;;;;;;5055508;28;20100;-63
2021/12/21 05:21:04;;;;;;;6.97;3.75;;;3.40;58.30;;;;;;5054709;28;20043;-58
2021/12/21 05:23:31;;;;;;;15.82;3.95;;;3.40;58.40;;;;;;5037333;28;20534;-62
2021/12/21 05:25:56;;;;;;;13.57;5.22;;;3.40;58.30;;;;;;5054537;28;20029;-61
2021/12/21 05:28:22;;;;;;;13.32;5.70;;;3.40;58.30;;;;;;5055171;28;20025;-62
2021/12/21 05:30:48;;;;;;;12.68;6.40;;;3.40;58.80;;;;;;5037294;28;20334;-60
2021/12/21 05:33:15;;;;;;;12.07;5.10;;;3.40;58.30;;;;;;5036657;28;20029;-59
2021/12/21 05:35:42;;;;;;;10.80;5.22;;;3.40;58.30;;;;;;5037103;28;20029;-61
2021/12/21 05:38:09;;;;;;;21.98;7.90;;;3.40;58.40;;;;;;5054549;28;20044;-63
2021/12/21 05:40:39;;;;;;;18.85;7.85;;;3.40;58.40;;;;;;5055081;28;20049;-62
2021/12/21 05:43:06;;;;;;;23.92;9.45;;;3.40;58.40;;;;;;5054483;28;20032;-59
2021/12/21 05:45:32;;;;;;;20.00;8.32;;;3.50;58.50;;;;;;5054747;28;20466;-67
2021/12/21 05:47:58;;;;;;;17.98;7.85;;;3.50;58.50;;;;;;5054448;28;20024;-65
2021/12/21 05:50:24;;;;;;;22.27;8.52;;;3.50;58.50;;;;;;5054938;28;20049;-66
2021/12/21 05:52:50;;;;;;;15.95;6.43;;;3.50;58.40;;;;;;5054813;28;20033;-65
2021/12/21 05:55:18;;;;;;;46.80;20.75;;;3.50;58.50;;;;;;5054183;28;20107;-66
2021/12/21 05:57:44;;;;;;;23.42;9.32;;;3.50;58.70;;;;;;5036756;28;20044;-63
2021/12/21 06:00:14;;;;;;;15.02;7.75;;;3.50;58.90;;;;;;5054290;28;20035;-64
2021/12/21 06:02:40;;;;;;;14.85;6.85;;;3.50;58.90;;;;;;5054812;28;20025;-63
2021/12/21 06:05:06;;;;;;;20.35;9.52;;;3.50;59.00;;;;;;5036297;28;20036;-67
2021/12/21 06:07:33;;;;;;;26.17;12.52;;;3.50;59.10;;;;;;5054440;28;20021;-64
2021/12/21 06:10:24;;;;;;;24.45;12.60;;;3.50;59.20;;;;;;5035750;28;20025;-65
2021/12/21 06:26:02;;;;;;;25.20;12.85;;;3.40;59.70;;;;;;5054276;28;20033;-63
2021/12/21 06:28:28;;;;;;;21.83;11.15;;;3.30;59.70;;;;;;5053486;28;20070;-62
2021/12/21 06:30:54;;;;;;;13.63;7.45;;;3.30;59.70;;;;;;5036227;28;20059;-65
2021/12/21 06:33:20;;;;;;;15.30;6.60;;;3.30;59.70;;;;;;5053945;28;20087;-62
2021/12/21 06:35:46;;;;;;;11.50;5.95;;;3.30;59.70;;;;;;5053970;28;20378;-64
2021/12/21 06:38:12;;;;;;;10.82;6.18;;;3.30;59.70;;;;;;5052961;28;20424;-66
2021/12/21 06:40:39;;;;;;;12.77;5.78;;;3.40;59.70;;;;;;5053673;28;20024;-63
2021/12/21 06:43:05;;;;;;;12.30;6.53;;;3.40;59.70;;;;;;5047968;28;20097;-67
2021/12/21 06:53:39;;;;;;;12.57;6.20;;;3.40;59.80;;;;;;5050423;28;20032;-60
2021/12/21 06:56:07;;;;;;;18.92;6.82;;;3.40;59.80;;;;;;5052968;28;20048;-58
2021/12/21 06:58:33;;;;;;;12.05;4.60;;;3.40;59.80;;;;;;5052780;28;20075;-62
2021/12/21 07:01:00;;;;;;;14.95;5.78;;;3.40;59.60;;;;;;5034289;28;20052;-63
2021/12/21 07:03:26;;;;;;;10.63;5.60;;;3.40;59.50;;;;;;5034709;28;20025;-65
2021/12/21 07:05:53;;;;;;;13.25;5.32;;;3.50;59.70;;;;;;5052826;28;20033;-65
2021/12/21 07:08:27;;;;;;;13.90;7.05;;;3.50;59.70;;;;;;5050112;28;20218;-64
2021/12/21 07:11:08;;;;;;;13.43;5.22;;;3.50;59.70;;;;;;5053368;28;20112;-64
2021/12/21 07:19:05;;;;;;;13.43;5.50;;;3.50;59.90;;;;;;5052968;28;20113;-65
2021/12/21 07:21:30;;;;;;;13.45;5.70;;;3.50;59.90;;;;;;5053049;28;20029;-63
2021/12/21 07:23:56;;;;;;;10.07;5.22;;;3.50;59.90;;;;;;5051874;28;20083;-66
2021/12/21 07:26:22;;;;;;;10.60;5.07;;;3.50;59.80;;;;;;5052447;28;20409;-62
2021/12/21 07:28:48;;;;;;;8.45;5.22;;;3.60;59.70;;;;;;5052258;28;20466;-67
2021/12/21 07:31:14;;;;;;;12.13;5.40;;;3.60;59.60;;;;;;5033944;28;20118;-65
2021/12/21 07:33:40;;;;;;;17.63;15.80;;;3.60;59.70;;;;;;5034242;28;20482;-65
2021/12/21 07:36:06;;;;;;;29.77;27.40;;;3.80;60.50;;;;;;5034214;28;20032;-62
2021/12/21 07:38:33;;;;;;;27.08;21.95;;;4.80;58.70;;;;;;5052059;28;20021;-66
2021/12/21 07:47:47;;;;;;;10.00;4.93;;;5.30;55.80;;;;;;4951301;28;20054;-67
2021/12/21 07:50:20;;;;;;;14.93;5.93;;;5.20;55.70;;;;;;4952069;28;20035;-70
2021/12/21 07:52:47;;;;;;;17.77;5.32;;;5.10;55.50;;;;;;4952139;29;20162;-68
2021/12/21 07:55:12;;;;;;;24.23;10.25;;;5.10;55.60;;;;;;4951410;29;20110;-67
2021/12/21 07:57:39;;;;;;;15.63;6.95;;;5.00;55.60;;;;;;4951736;28;20198;-66
2021/12/21 08:00:08;;;;;;;10.07;4.70;;;5.00;55.70;;;;;;4934850;29;20034;-62
2021/12/21 08:02:38;;;;;;;10.20;4.63;;;4.90;55.30;;;;;;4949756;28;20043;-64
2021/12/21 08:05:07;;;;;;;11.38;5.43;;;4.80;55.50;;;;;;4935887;29;20035;-66
2021/12/21 08:07:34;;;;;;;15.73;6.13;;;4.70;55.50;;;;;;4951377;28;20039;-65
2021/12/21 08:10:07;;;;;;;11.48;5.82;;;4.70;56.00;;;;;;4950674;28;20031;-65
2021/12/21 08:12:33;;;;;;;15.25;6.20;;;4.70;55.70;;;;;;4952086;29;20421;-67
2021/12/21 08:14:59;;;;;;;9.80;4.43;;;4.80;55.80;;;;;;4949912;28;20102;-62
2021/12/21 08:17:36;;;;;;;13.35;6.40;;;4.90;55.50;;;;;;4951212;29;20053;-66
2021/12/21 08:20:02;;;;;;;11.38;5.43;;;5.00;55.40;;;;;;4967703;28;20056;-65
2021/12/21 08:22:28;;;;;;;9.80;4.78;;;5.20;54.70;;;;;;5017854;28;20379;-63
2021/12/21 08:24:53;;;;;;;11.50;4.85;;;5.30;54.60;;;;;;5049710;28;20044;-68
2021/12/21 08:27:19;;;;;;;11.25;4.50;;;5.40;54.30;;;;;;5052688;28;20067;-66
2021/12/21 08:29:45;;;;;;;8.75;4.60;;;5.50;53.70;;;;;;5070827;28;20021;-63
2021/12/21 08:32:11;;;;;;;10.32;4.90;;;5.40;53.20;;;;;;5068522;28;20025;-63
2021/12/21 08:34:37;;;;;;;9.55;4.85;;;5.30;53.50;;;;;;5069003;28;20033;-68
2021/12/21 08:37:04;;;;;;;10.23;4.32;;;5.20;53.80;;;;;;5069875;28;20077;-66
2021/12/21 08:39:38;;;;;;;9.63;5.00;;;5.20;54.00;;;;;;5070104;28;20477;-63
2021/12/21 08:42:04;;;;;;;9.15;4.05;;;5.20;54.10;;;;;;5069293;28;20074;-75
2021/12/21 08:44:31;;;;;;;10.05;4.68;;;5.20;54.10;;;;;;5069506;28;20044;-70
2021/12/21 08:46:57;;;;;;;12.75;5.10;;;5.20;53.80;;;;;;5069663;28;20029;-72
2021/12/21 08:49:25;;;;;;;12.88;4.63;;;5.20;53.90;;;;;;5071085;28;20101;-64
2021/12/21 08:51:51;;;;;;;11.20;4.75;;;5.20;54.20;;;;;;5073534;28;20035;-69
2021/12/21 08:54:17;;;;;;;10.13;5.20;;;5.20;54.20;;;;;;5073446;28;20029;-72
2021/12/21 08:56:44;;;;;;;14.93;5.38;;;5.30;54.20;;;;;;5073842;28;20466;-64
2021/12/21 08:59:12;;;;;;;12.77;5.18;;;5.30;54.30;;;;;;5073538;28;20029;-71
2021/12/21 09:01:38;;;;;;;9.52;5.18;;;5.30;53.60;;;;;;5074079;28;20020;-73
2021/12/21 09:04:04;;;;;;;11.00;5.35;;;5.40;54.10;;;;;;5073461;28;20043;-64
2021/12/21 09:06:30;;;;;;;10.27;5.10;;;5.40;54.10;;;;;;5075230;28;20649;-68
2021/12/21 09:08:55;;;;;;;10.20;5.63;;;5.40;54.00;;;;;;5070998;28;20042;-63
2021/12/21 09:11:21;;;;;;;9.32;4.57;;;5.50;54.00;;;;;;5073406;28;20042;-63
2021/12/21 09:13:47;;;;;;;11.18;4.80;;;5.50;53.40;;;;;;5072828;28;20032;-64
2021/12/21 09:16:13;;;;;;;8.05;4.63;;;5.50;53.20;;;;;;5074312;28;20027;-65
2021/12/21 09:18:39;;;;;;;9.32;4.40;;;5.50;53.00;;;;;;5073711;28;20059;-66
2021/12/21 09:21:05;;;;;;;8.10;4.55;;;5.50;52.80;;;;;;5072530;28;20454;-69
2021/12/21 09:23:30;;;;;;;8.25;4.40;;;5.50;52.50;;;;;;5074167;28;20461;-64
2021/12/21 09:25:56;;;;;;;10.30;3.97;;;5.60;52.40;;;;;;5072100;28;20082;-65
2021/12/21 09:28:22;;;;;;;9.27;5.50;;;5.60;52.50;;;;;;5053466;28;20033;-66
2021/12/21 09:30:48;;;;;;;6.60;3.92;;;5.70;52.20;;;;;;5053536;28;20021;-62
2021/12/21 09:33:13;;;;;;;9.27;4.22;;;5.90;51.80;;;;;;5053350;28;20367;-70
2021/12/21 09:35:39;;;;;;;10.15;4.22;;;5.90;51.30;;;;;;5053375;28;20028;-64
2021/12/21 09:38:05;;;;;;;4.32;3.00;;;5.90;50.80;;;;;;5035561;28;20066;-68
2021/12/21 09:40:38;;;;;;;8.20;3.63;;;6.00;49.90;;;;;;5052107;28;20040;-68
2021/12/21 09:43:06;;;;;;;5.75;2.92;;;6.00;49.60;;;;;;5034230;28;20033;-70
2021/12/21 09:45:32;;;;;;;5.90;3.17;;;5.90;48.70;;;;;;5053499;28;20025;-70
2021/12/21 09:47:57;;;;;;;6.18;3.33;;;6.00;49.20;;;;;;5053676;28;20401;-69
2021/12/21 09:50:25;;;;;;;11.63;3.70;;;6.10;48.80;;;;;;5053661;28;20104;-73
2021/12/21 09:52:53;;;;;;;9.30;3.28;;;6.10;48.80;;;;;;5053010;28;20455;-67
2021/12/21 09:55:19;;;;;;;19.33;4.38;;;6.20;48.80;;;;;;5034884;28;20204;-74
2021/12/21 09:57:46;;;;;;;4.97;3.00;;;6.30;47.10;;;;;;5035105;28;20021;-71
2021/12/21 10:00:15;;;;;;;8.27;3.40;;;6.30;48.10;;;;;;5035543;28;20466;-67
2021/12/21 10:02:41;;;;;;;7.72;3.10;;;6.40;47.60;;;;;;5034687;28;20040;-66
2021/12/21 10:05:11;;;;;;;8.77;3.72;;;6.30;46.80;;;;;;5052374;28;20040;-67
2021/12/21 10:07:37;;;;;;;21.10;4.93;;;6.30;46.90;;;;;;5052857;28;20090;-70
2021/12/21 10:10:08;;;;;;;13.27;3.30;;;6.40;47.40;;;;;;5034247;28;20025;-66
2021/12/21 10:12:45;;;;;;;7.28;2.28;;;6.40;46.60;;;;;;5035481;28;20025;-72
2021/12/21 10:15:15;;;;;;;10.45;3.08;;;6.50;46.60;;;;;;5035245;28;20063;-66
2021/12/21 10:18:34;;;;;;;7.50;3.05;;;6.50;44.80;;;;;;5036470;28;20025;-67
2021/12/21 10:21:07;;;;;;;17.67;3.78;;;6.50;44.40;;;;;;5049436;28;20044;-66
2021/12/21 10:23:40;;;;;;;14.18;4.20;;;6.50;44.80;;;;;;5034976;28;20029;-73
2021/12/21 10:26:08;;;;;;;11.93;4.47;;;6.50;45.30;;;;;;5053660;28;20032;-71
2021/12/21 10:28:38;;;;;;;6.30;2.90;;;6.60;44.60;;;;;;5072631;28;20127;-67
2021/12/21 10:31:25;;;;;;;11.98;3.42;;;6.60;44.10;;;;;;5072448;28;20116;-66
2021/12/21 10:34:15;;;;;;;11.88;2.90;;;6.70;44.30;;;;;;5073199;28;20107;-68
2021/12/21 10:36:49;;;;;;;16.63;4.57;;;6.80;44.10;;;;;;5072280;28;20024;-74
2021/12/21 10:39:28;;;;;;;14.70;3.13;;;6.70;44.10;;;;;;5072509;28;20171;-68
2021/12/21 10:41:59;;;;;;;5.43;2.53;;;6.80;44.00;;;;;;5071760;28;20032;-67
2021/12/21 10:44:25;;;;;;;10.40;2.40;;;6.80;43.60;;;;;;5071562;28;20043;-63
2021/12/21 10:46:54;;;;;;;8.60;2.10;;;6.80;43.00;;;;;;5071380;28;20099;-64
2021/12/21 10:49:28;;;;;;;10.70;3.92;;;6.70;43.40;;;;;;5070794;28;20286;-63
2021/12/21 10:51:58;;;;;;;11.57;3.38;;;6.50;43.70;;;;;;5071535;28;20036;-68
2021/12/21 10:54:35;;;;;;;11.32;3.58;;;6.50;43.80;;;;;;5069077;28;20036;-69
2021/12/21 10:57:10;;;;;;;7.75;2.45;;;6.60;43.60;;;;;;5069176;28;20028;-70
2021/12/21 10:59:41;;;;;;;7.25;2.53;;;6.60;43.10;;;;;;5071577;28;20025;-70
2021/12/21 11:02:18;;;;;;;7.18;2.85;;;6.70;43.60;;;;;;5069263;28;20043;-69
2021/12/21 11:04:54;;;;;;;4.57;2.25;;;6.70;43.20;;;;;;5071752;28;20037;-69
2021/12/21 11:10:00;;;;;;;7.70;3.40;;;6.90;43.30;;;;;;5072133;28;20379;-69
2021/12/21 11:12:28;;;;;;;3.75;2.15;;;7.20;43.40;;;;;;5071683;28;20025;-72
2021/12/21 11:14:57;;;;;;;8.68;3.58;;;7.80;42.90;;;;;;5069952;28;20499;-72
2021/12/21 11:17:23;;;;;;;12.70;4.13;;;8.10;40.60;;;;;;5071361;28;20059;-69
2021/12/21 11:19:53;;;;;;;10.15;3.33;;;7.90;41.10;;;;;;5072084;28;20103;-72
2021/12/21 11:22:23;;;;;;;6.95;2.95;;;7.70;40.50;;;;;;5069777;28;20082;-65
2021/12/21 11:24:50;;;;;;;15.05;6.53;;;7.60;41.00;;;;;;5071685;28;20037;-67
2021/12/21 11:27:17;;;;;;;4.30;2.15;;;8.00;41.30;;;;;;5069332;28;20346;-68
2021/12/21 11:29:44;;;;;;;4.50;2.00;;;8.60;41.10;;;;;;5071785;28;20090;-67
2021/12/21 11:32:12;;;;;;;6.53;2.53;;;8.70;39.40;;;;;;5070459;28;20040;-65
2021/12/21 11:34:58;;;;;;;6.57;1.92;;;8.40;40.30;;;;;;5068923;28;20457;-67
2021/12/21 11:37:27;;;;;;;14.50;6.03;;;8.30;40.00;;;;;;5070327;28;20031;-67
2021/12/21 11:39:54;;;;;;;19.25;5.88;;;8.10;40.20;;;;;;5070812;28;20020;-68
2021/12/21 11:42:40;;;;;;;5.75;3.35;;;7.90;40.00;;;;;;5070056;28;20089;-70
2021/12/21 11:45:13;;;;;;;4.40;2.83;;;7.80;40.50;;;;;;5069532;28;20028;-70
2021/12/21 11:47:55;;;;;;;6.78;2.30;;;7.80;40.30;;;;;;5070605;28;20476;-68
2021/12/21 11:50:21;;;;;;;7.07;3.00;;;7.80;40.50;;;;;;5070677;28;20084;-70
2021/12/21 11:52:59;;;;;;;6.55;2.78;;;7.80;40.80;;;;;;5070749;28;20054;-73
2021/12/21 11:55:29;;;;;;;11.25;5.82;;;7.80;40.80;;;;;;5070080;28;20457;-65
2021/12/21 11:57:57;;;;;;;12.82;6.05;;;7.80;40.80;;;;;;5069835;28;20075;-66
2021/12/21 12:00:33;;;;;;;20.25;7.35;;;7.90;40.80;;;;;;5069480;28;20191;-66
2021/12/21 12:03:14;;;;;;;7.15;4.07;;;7.90;40.60;;;;;;5070297;28;20032;-65
2021/12/21 12:06:10;;;;;;;12.43;3.65;;;7.60;39.90;;;;;;5069718;28;20388;-64
2021/12/21 12:08:50;;;;;;;6.75;2.92;;;7.40;40.80;;;;;;5069478;28;20036;-69
2021/12/21 12:11:35;;;;;;;14.35;3.00;;;7.30;41.10;;;;;;5069364;28;20481;-70
2021/12/21 12:14:18;;;;;;;22.70;8.80;;;7.20;40.80;;;;;;5067811;28;20021;-70
2021/12/21 12:16:58;;;;;;;23.30;10.10;;;7.20;41.70;;;;;;5069589;28;20021;-69
2021/12/21 12:19:34;;;;;;;39.78;5.88;;;7.40;41.60;;;;;;5070088;28;20501;-68
2021/12/21 12:22:09;;;;;;;10.65;3.22;;;7.40;41.50;;;;;;5068393;28;20028;-58
2021/12/21 12:24:45;;;;;;;13.93;4.43;;;7.50;41.30;;;;;;5069846;28;20086;-68
2021/12/21 12:27:17;;;;;;;15.13;3.45;;;7.50;41.00;;;;;;5060035;28;20053;-65
2021/12/21 12:29:49;;;;;;;6.07;3.30;;;7.30;41.00;;;;;;5049898;28;20024;-67
2021/12/21 12:32:17;;;;;;;8.00;4.00;;;7.30;41.40;;;;;;5031150;28;20362;-78
2021/12/21 12:34:43;;;;;;;10.18;4.05;;;7.40;41.70;;;;;;5050587;28;20025;-65
2021/12/21 12:37:19;;;;;;;14.73;3.95;;;7.50;41.60;;;;;;5049406;28;20021;-73
2021/12/21 12:39:51;;;;;;;12.30;4.50;;;7.50;41.20;;;;;;5049781;28;20025;-67
2021/12/21 12:42:23;;;;;;;10.73;4.97;;;7.60;41.40;;;;;;5049190;28;20025;-73
2021/12/21 12:45:10;;;;;;;13.20;4.97;;;7.40;40.90;;;;;;5049792;28;20087;-67
2021/12/21 12:47:44;;;;;;;12.55;4.20;;;7.30;41.60;;;;;;5032628;28;20648;-65
2021/12/21 12:50:28;;;;;;;8.55;5.13;;;7.30;41.70;;;;;;5031637;28;20056;-65
2021/12/21 12:52:59;;;;;;;4.35;2.63;;;7.30;41.70;;;;;;5048823;28;20032;-68
2021/12/21 12:55:37;;;;;;;12.35;3.60;;;7.30;41.90;;;;;;5048918;28;20021;-65
2021/12/21 12:58:12;;;;;;;9.80;3.40;;;7.30;42.00;;;;;;5030895;28;20462;-66
2021/12/21 13:00:41;;;;;;;7.32;2.72;;;7.20;42.20;;;;;;5031546;28;20048;-67
2021/12/21 13:03:10;;;;;;;9.52;2.40;;;7.20;42.30;;;;;;5030793;28;20096;-67
2021/12/21 13:05:53;;;;;;;6.85;2.60;;;7.20;42.40;;;;;;5048624;28;20032;-71
2021/12/21 13:08:26;;;;;;;6.85;2.92;;;7.20;42.00;;;;;;5029975;28;20116;-70
2021/12/21 13:10:54;;;;;;;3.30;1.77;;;7.10;42.00;;;;;;5048940;28;20021;-72
2021/12/21 13:13:20;;;;;;;8.95;2.65;;;7.10;42.00;;;;;;5030569;28;20033;-64
2021/12/21 13:15:50;;;;;;;9.88;3.17;;;7.10;42.40;;;;;;5050004;28;20075;-69
2021/12/21 13:18:17;;;;;;;9.38;3.35;;;7.10;42.80;;;;;;5049798;28;20025;-72
2021/12/21 13:20:47;;;;;;;7.32;3.30;;;7.00;43.50;;;;;;5031711;28;20124;-68
2021/12/21 13:23:15;;;;;;;8.10;3.10;;;7.00;42.90;;;;;;5048515;28;20040;-72
2021/12/21 13:26:00;;;;;;;7.97;3.05;;;7.10;43.10;;;;;;5046465;28;20029;-70
2021/12/21 13:28:27;;;;;;;9.02;4.97;;;7.10;42.90;;;;;;5049685;28;20045;-65
2021/12/21 13:30:59;;;;;;;32.95;14.75;;;7.20;43.00;;;;;;5050143;28;20021;-71
2021/12/21 13:33:28;;;;;;;18.60;9.32;;;7.10;42.70;;;;;;5049570;28;20250;-66
2021/12/21 13:36:04;;;;;;;15.05;6.65;;;7.00;43.20;;;;;;5031850;28;20033;-71
2021/12/21 13:38:29;;;;;;;6.15;3.75;;;7.10;43.30;;;;;;5052219;28;20025;-70
2021/12/21 13:41:12;;;;;;;3.78;2.65;;;7.20;43.00;;;;;;5053408;28;20021;-70
2021/12/21 13:43:51;;;;;;;6.55;2.80;;;7.20;42.80;;;;;;5052996;28;20087;-66
2021/12/21 13:46:17;;;;;;;8.15;3.15;;;7.20;43.00;;;;;;5035097;28;20108;-66
2021/12/21 13:48:54;;;;;;;13.93;5.43;;;7.20;43.10;;;;;;5053161;28;20122;-68
2021/12/21 13:51:21;;;;;;;19.30;9.02;;;7.20;43.30;;;;;;5053000;28;20025;-66
2021/12/21 13:53:54;;;;;;;26.30;11.55;;;7.30;43.40;;;;;;5035619;28;20033;-65
2021/12/21 13:56:22;;;;;;;12.60;5.07;;;7.40;43.60;;;;;;5052626;28;20036;-70
2021/12/21 13:58:54;;;;;;;25.70;12.93;;;7.50;43.40;;;;;;5053716;28;20329;-66
2021/12/21 14:01:27;;;;;;;21.10;7.53;;;7.50;43.40;;;;;;5052772;28;20052;-69
2021/12/21 14:04:17;;;;;;;14.50;4.18;;;7.30;43.50;;;;;;5053033;28;20051;-70
2021/12/21 14:06:45;;;;;;;9.63;4.00;;;7.20;43.80;;;;;;5041230;28;20116;-71
2021/12/21 14:09:12;;;;;;;7.90;4.00;;;7.30;44.00;;;;;;5034899;28;20441;-72
2021/12/21 14:11:42;;;;;;;16.33;4.57;;;7.30;44.00;;;;;;5035021;28;20025;-66
2021/12/21 14:14:16;;;;;;;19.90;9.43;;;7.30;44.40;;;;;;5034644;28;20500;-69
2021/12/21 14:16:44;;;;;;;28.92;10.60;;;7.10;45.00;;;;;;5053496;28;20067;-68
2021/12/21 14:19:32;;;;;;;37.03;14.98;;;7.10;45.50;;;;;;5035115;28;20029;-66
2021/12/21 14:21:58;;;;;;;30.08;13.90;;;6.90;46.00;;;;;;5053434;28;20052;-65
2021/12/21 14:24:28;;;;;;;25.48;5.53;;;6.90;46.50;;;;;;5052695;28;20079;-68
2021/12/21 14:27:03;;;;;;;48.85;10.05;;;7.00;46.50;;;;;;5044296;28;20048;-66
2021/12/21 14:29:30;;;;;;;41.83;11.85;;;7.10;46.50;;;;;;5073075;28;20024;-75
2021/12/21 14:34:41;;;;;;;37.80;10.38;;;7.00;46.60;;;;;;5073097;28;20115;-73
2021/12/21 14:37:10;;;;;;;26.02;10.30;;;6.90;47.00;;;;;;5070679;28;20044;-69
2021/12/21 14:39:36;;;;;;;12.95;5.05;;;6.90;47.10;;;;;;5071244;28;20153;-68